createdAt,value
2022-12-20T00:01:41.683Z,0.00
2022-12-20T00:04:11.764Z,0.10
2022-12-20T00:06:41.875Z,0.10
2022-12-20T00:09:11.907Z,0.10
2022-12-20T00:11:41.618Z,0.10
2022-12-20T00:14:11.996Z,0.10
2022-12-20T00:16:41.499Z,0.10
2022-12-20T00:19:11.831Z,0.10
2022-12-20T00:21:41.863Z,0.10
2022-12-20T00:24:11.470Z,0.10
2022-12-20T00:26:41.411Z,0.10
2022-12-20T00:29:11.724Z,0.10
2022-12-20T00:31:41.915Z,0.10
2022-12-20T00:34:11.629Z,0.10
2022-12-20T00:36:41.764Z,0.10
2022-12-20T00:39:11.523Z,0.10
2022-12-20T00:41:41.413Z,0.10
2022-12-20T00:44:11.808Z,0.10
2022-12-20T00:46:41.526Z,0.10
2022-12-20T00:51:41.504Z,0.10
2022-12-20T00:54:11.570Z,0.40
2022-12-20T00:56:41.849Z,0.40
2022-12-20T01:01:41.729Z,0.40
2022-12-20T01:04:11.527Z,0.00
2022-12-20T01:06:41.849Z,0.00
2022-12-20T01:09:12.131Z,0.00
2022-12-20T01:14:14.681Z,0.10
2022-12-20T01:16:44.178Z,0.10
2022-12-20T01:19:13.751Z,0.10
2022-12-20T01:21:43.660Z,0.10
2022-12-20T01:24:12.078Z,0.00
2022-12-20T01:26:41.853Z,0.00
2022-12-20T01:29:11.942Z,0.00
2022-12-20T01:31:41.995Z,0.00
2022-12-20T01:34:11.659Z,0.10
2022-12-20T01:36:41.933Z,0.10
2022-12-20T01:39:14.064Z,0.10
2022-12-20T01:41:44.461Z,0.10
2022-12-20T01:44:31.243Z,0.60
2022-12-20T01:46:41.792Z,0.60
2022-12-20T01:49:16.452Z,0.60
2022-12-20T01:51:44.270Z,0.60
2022-12-20T01:54:15.456Z,0.50
2022-12-20T01:56:44.851Z,0.50
2022-12-20T01:59:13.005Z,0.50
2022-12-20T02:01:43.085Z,0.50
2022-12-20T02:04:11.544Z,0.10
2022-12-20T02:06:41.474Z,0.10
2022-12-20T02:09:12.045Z,0.10
2022-12-20T02:11:55.144Z,0.10
2022-12-20T02:14:20.724Z,0.10
2022-12-20T02:16:49.323Z,0.10
2022-12-20T02:19:29.622Z,0.10
2022-12-20T02:21:51.442Z,0.10
2022-12-20T02:24:31.317Z,0.10
2022-12-20T02:27:01.168Z,0.10
2022-12-20T02:29:22.857Z,0.10
2022-12-20T02:31:47.855Z,0.10
2022-12-20T02:34:13.153Z,0.20
2022-12-20T02:36:41.577Z,0.20
2022-12-20T02:39:14.095Z,0.20
2022-12-20T02:44:24.539Z,0.20
2022-12-20T02:46:42.784Z,0.20
2022-12-20T02:49:14.685Z,0.20
2022-12-20T02:51:45.144Z,0.20
2022-12-20T02:54:12.420Z,0.00
2022-12-20T02:56:47.722Z,0.00
2022-12-20T02:59:17.382Z,0.00
2022-12-20T03:01:46.589Z,0.00
2022-12-20T03:04:12.194Z,0.00
2022-12-20T03:06:55.368Z,0.00
2022-12-20T03:09:11.621Z,0.00
2022-12-20T03:11:41.552Z,0.00
2022-12-20T03:14:11.486Z,0.20
2022-12-20T03:16:41.643Z,0.20
2022-12-20T03:19:11.688Z,0.20
2022-12-20T03:21:42.116Z,0.20
2022-12-20T03:24:12.639Z,0.00
2022-12-20T03:26:42.734Z,0.00
2022-12-20T03:29:11.842Z,0.00
2022-12-20T03:31:41.659Z,0.00
2022-12-20T03:34:11.806Z,0.00
2022-12-20T03:36:41.484Z,0.00
2022-12-20T03:39:11.953Z,0.00
2022-12-20T03:41:41.534Z,0.00
2022-12-20T03:44:11.670Z,0.10
2022-12-20T03:46:41.641Z,0.10
2022-12-20T03:49:11.512Z,0.10
2022-12-20T03:51:41.798Z,0.10
2022-12-20T03:54:11.818Z,0.10
2022-12-20T03:56:41.482Z,0.10
2022-12-20T03:59:11.934Z,0.10
2022-12-20T04:01:41.567Z,0.10
2022-12-20T04:04:12.993Z,0.00
2022-12-20T04:06:41.867Z,0.00
2022-12-20T04:11:41.668Z,0.00
2022-12-20T04:14:11.532Z,0.20
2022-12-20T04:16:41.871Z,0.20
2022-12-20T04:19:11.705Z,0.20
2022-12-20T04:21:41.490Z,0.20
2022-12-20T04:24:11.635Z,0.10
2022-12-20T04:26:42.009Z,0.10
2022-12-20T04:29:11.536Z,0.10
2022-12-20T04:31:42.374Z,0.10
2022-12-20T04:36:41.669Z,0.40
2022-12-20T04:39:11.587Z,0.40
2022-12-20T04:41:41.546Z,0.40
2022-12-20T04:44:11.663Z,0.10
2022-12-20T04:46:41.622Z,0.10
2022-12-20T04:49:11.560Z,0.10
2022-12-20T04:51:41.724Z,0.10
2022-12-20T04:54:11.582Z,0.70
2022-12-20T04:56:41.621Z,0.70
2022-12-20T04:59:11.640Z,0.70
2022-12-20T05:01:41.774Z,0.70
2022-12-20T05:04:12.328Z,0.10
2022-12-20T05:09:11.665Z,0.10
2022-12-20T05:11:41.565Z,0.10
2022-12-20T05:14:11.714Z,0.10
2022-12-20T05:16:41.842Z,0.10
2022-12-20T05:19:11.498Z,0.10
2022-12-20T05:21:51.684Z,0.10
2022-12-20T05:24:21.394Z,0.00
2022-12-20T05:26:41.640Z,0.00
2022-12-20T05:29:11.984Z,0.00
2022-12-20T05:31:41.636Z,0.00
2022-12-20T05:39:12.076Z,0.00
2022-12-20T05:41:41.557Z,0.00
2022-12-20T05:44:11.519Z,0.30
2022-12-20T05:49:11.719Z,0.30
2022-12-20T05:51:41.667Z,0.30
2022-12-20T05:54:11.540Z,1.20
2022-12-20T05:56:41.562Z,1.20
2022-12-20T05:59:11.565Z,1.20
2022-12-20T06:01:41.723Z,1.20
2022-12-20T06:04:11.839Z,0.30
2022-12-20T06:09:12.113Z,0.30
2022-12-20T06:11:41.536Z,0.30
2022-12-20T06:14:11.525Z,0.60
2022-12-20T06:16:41.866Z,0.60
2022-12-20T06:19:16.033Z,0.60
2022-12-20T06:21:41.765Z,0.60
2022-12-20T06:24:11.899Z,0.40
2022-12-20T06:26:41.662Z,0.40
2022-12-20T06:29:13.453Z,0.40
2022-12-20T06:31:41.609Z,0.40
2022-12-20T06:34:11.767Z,0.30
2022-12-20T06:36:41.895Z,0.30
2022-12-20T06:39:11.663Z,0.30
2022-12-20T06:41:41.803Z,0.30
2022-12-20T06:46:41.651Z,0.00
2022-12-20T06:49:11.712Z,0.00
2022-12-20T06:51:41.943Z,0.00
2022-12-20T06:54:11.770Z,0.30
2022-12-20T06:56:41.884Z,0.30
2022-12-20T06:59:11.739Z,0.30
2022-12-20T07:01:41.831Z,0.30
2022-12-20T07:04:11.633Z,0.20
2022-12-20T07:06:41.925Z,0.20
2022-12-20T07:09:11.662Z,0.20
2022-12-20T07:11:42.634Z,0.20
2022-12-20T07:16:43.733Z,0.00
2022-12-20T07:21:42.496Z,0.00
2022-12-20T07:24:11.541Z,0.30
2022-12-20T07:26:43.987Z,0.30
2022-12-20T07:29:15.618Z,0.30
2022-12-20T07:31:41.699Z,0.30
2022-12-20T07:34:12.344Z,0.00
2022-12-20T07:41:59.234Z,0.10
2022-12-20T07:44:29.644Z,0.10
2022-12-20T07:46:59.062Z,0.10
2022-12-20T07:49:29.072Z,0.10
2022-12-20T07:52:02.503Z,0.00
2022-12-20T07:54:32.424Z,0.00
2022-12-20T07:57:03.171Z,0.00
2022-12-20T07:59:34.641Z,0.00
2022-12-20T08:02:05.038Z,0.20
2022-12-20T08:04:30.122Z,0.20
2022-12-20T08:07:00.752Z,0.20
2022-12-20T08:09:34.114Z,0.20
2022-12-20T08:11:59.865Z,0.10
2022-12-20T08:14:29.481Z,0.10
2022-12-20T08:16:59.811Z,0.10
2022-12-20T08:19:32.583Z,0.10
2022-12-20T08:21:59.296Z,0.10
2022-12-20T08:24:29.363Z,0.10
2022-12-20T08:26:59.139Z,0.10
2022-12-20T08:29:29.164Z,0.10
2022-12-20T08:32:00.417Z,0.30
2022-12-20T08:39:29.741Z,0.30
2022-12-20T08:41:59.128Z,0.10
2022-12-20T08:44:29.333Z,0.10
2022-12-20T08:46:59.169Z,0.10
2022-12-20T08:49:29.259Z,0.10
2022-12-20T08:51:59.749Z,0.00
2022-12-20T08:54:29.423Z,0.00
2022-12-20T08:56:59.192Z,0.00
2022-12-20T08:59:29.924Z,0.00
2022-12-20T09:01:59.198Z,0.00
2022-12-20T09:04:29.650Z,0.00
2022-12-20T09:09:29.533Z,0.00
2022-12-20T09:11:59.172Z,0.00
2022-12-20T09:14:29.097Z,0.00
2022-12-20T09:16:59.569Z,0.00
2022-12-20T09:21:59.186Z,0.10
2022-12-20T09:24:29.423Z,0.10
2022-12-20T09:26:59.080Z,0.10
2022-12-20T09:29:35.270Z,0.10
2022-12-20T09:34:29.255Z,0.10
2022-12-20T09:36:59.267Z,0.10
2022-12-20T09:39:29.629Z,0.10
2022-12-20T09:41:59.512Z,0.30
2022-12-20T09:44:33.025Z,0.30
2022-12-20T09:47:10.067Z,0.30
2022-12-20T09:49:32.495Z,0.30
2022-12-20T09:54:38.763Z,0.00
2022-12-20T09:57:06.784Z,0.00
2022-12-20T09:59:38.575Z,0.00
2022-12-20T10:02:13.213Z,0.00
2022-12-20T10:04:31.427Z,0.00
2022-12-20T10:07:12.885Z,0.00
2022-12-20T10:09:46.196Z,0.00
2022-12-20T10:54:58.366Z,0.00
2022-12-20T10:57:30.979Z,0.00
2022-12-20T11:00:00.121Z,0.00
2022-12-20T11:01:36.856Z,0.10
2022-12-20T11:02:38.905Z,0.10
2022-12-20T11:05:14.056Z,0.10
2022-12-20T12:01:28.943Z,0.10
2022-12-20T12:04:04.219Z,0.10
2022-12-20T12:06:27.494Z,0.10
2022-12-20T12:08:56.289Z,0.10
2022-12-20T12:13:54.167Z,0.00
2022-12-20T12:16:28.164Z,0.00
2022-12-20T12:18:52.531Z,0.00
2022-12-20T12:21:24.351Z,0.60
2022-12-20T12:24:02.377Z,0.60
2022-12-20T12:26:25.103Z,0.60
2022-12-20T12:28:55.748Z,0.60
2022-12-20T13:01:44.099Z,0.00
2022-12-20T13:04:09.049Z,0.00
2022-12-20T13:09:13.925Z,0.00
2022-12-20T13:11:29.470Z,0.00
2022-12-20T13:14:14.479Z,0.00
2022-12-20T13:17:09.521Z,0.00
2022-12-20T13:21:34.505Z,0.30
2022-12-20T13:24:13.898Z,0.30
2022-12-20T13:26:43.952Z,0.30
2022-12-20T13:28:54.188Z,0.30
2022-12-20T13:31:32.170Z,0.30
2022-12-20T13:36:35.098Z,0.30
2022-12-20T13:43:57.105Z,0.10
2022-12-20T13:46:30.738Z,0.10
2022-12-20T13:49:00.172Z,0.10
2022-12-20T13:51:25.895Z,0.10
2022-12-20T13:53:56.885Z,0.10
2022-12-20T13:56:36.637Z,0.10
2022-12-20T14:01:25.879Z,0.20
2022-12-20T14:03:54.777Z,0.20
2022-12-20T14:06:27.321Z,0.20
2022-12-20T14:08:54.153Z,0.20
2022-12-20T14:11:26.554Z,0.30
2022-12-20T14:12:41.286Z,0.30
2022-12-20T14:13:56.266Z,0.30
2022-12-20T14:16:26.250Z,0.30
2022-12-20T14:19:01.257Z,0.30
2022-12-20T14:21:25.701Z,0.50
2022-12-20T14:23:56.873Z,0.50
2022-12-20T14:26:28.041Z,0.50
2022-12-20T14:28:57.439Z,0.50
2022-12-20T14:31:28.063Z,0.30
2022-12-20T14:34:04.622Z,0.30
2022-12-20T14:36:24.351Z,0.30
2022-12-20T14:41:34.995Z,0.60
2022-12-20T14:43:55.388Z,0.60
2022-12-20T14:46:24.642Z,0.60
2022-12-20T14:49:06.879Z,0.60
2022-12-20T14:51:24.192Z,0.10
2022-12-20T14:56:31.678Z,0.10
2022-12-20T14:59:10.755Z,0.10
2022-12-20T15:01:26.488Z,0.20
2022-12-20T15:03:56.528Z,0.20
2022-12-20T15:06:34.004Z,0.20
2022-12-20T15:08:54.181Z,0.20
2022-12-20T15:11:24.283Z,0.10
2022-12-20T15:13:56.229Z,0.10
2022-12-20T15:16:26.184Z,0.10
2022-12-20T15:18:56.491Z,0.10
2022-12-20T15:21:28.528Z,0.40
2022-12-20T15:23:55.954Z,0.40
2022-12-20T15:26:26.242Z,0.40
2022-12-20T15:28:54.771Z,0.40
2022-12-20T15:31:33.049Z,0.50
2022-12-20T15:33:57.141Z,0.50
2022-12-20T15:36:26.509Z,0.50
2022-12-20T15:39:11.837Z,0.50
2022-12-20T15:41:27.661Z,0.10
2022-12-20T15:43:56.192Z,0.10
2022-12-20T15:46:25.027Z,0.10
2022-12-20T15:48:55.213Z,0.10
2022-12-20T15:51:29.610Z,0.30
2022-12-20T15:53:54.305Z,0.30
2022-12-20T15:56:25.817Z,0.30
2022-12-20T15:58:54.426Z,0.30
2022-12-20T16:01:31.180Z,0.20
2022-12-20T16:06:24.729Z,0.20
2022-12-20T16:08:54.447Z,0.20
2022-12-20T16:11:26.925Z,0.70
2022-12-20T16:13:55.998Z,0.70
2022-12-20T16:16:26.689Z,0.70
2022-12-20T16:18:54.247Z,0.70
2022-12-20T16:21:26.267Z,0.20
2022-12-20T16:23:54.259Z,0.20
2022-12-20T16:26:25.683Z,0.20
2022-12-20T16:28:55.522Z,0.20
2022-12-20T16:31:27.137Z,0.40
2022-12-20T16:33:55.098Z,0.40
2022-12-20T16:36:25.106Z,0.40
2022-12-20T16:38:55.232Z,0.40
2022-12-20T16:41:26.640Z,0.20
2022-12-20T16:43:55.925Z,0.20
2022-12-20T16:46:26.541Z,0.20
2022-12-20T16:48:56.043Z,0.20
2022-12-20T16:51:26.454Z,0.30
2022-12-20T16:54:18.074Z,0.30
2022-12-20T16:56:24.752Z,0.30
2022-12-20T16:59:18.418Z,0.30
2022-12-20T17:01:29.702Z,0.50
2022-12-20T17:03:54.393Z,0.50
2022-12-20T17:06:24.386Z,0.50
2022-12-20T17:08:55.192Z,0.50
2022-12-20T17:11:28.150Z,0.70
2022-12-20T17:13:55.731Z,0.70
2022-12-20T17:16:26.154Z,0.70
2022-12-20T17:18:56.405Z,0.70
2022-12-20T17:21:32.295Z,0.10
2022-12-20T17:23:54.223Z,0.10
2022-12-20T17:26:26.515Z,0.10
2022-12-20T17:28:57.714Z,0.10
2022-12-20T17:31:27.915Z,0.50
2022-12-20T17:33:55.381Z,0.50
2022-12-20T17:36:24.267Z,0.50
2022-12-20T17:38:54.565Z,0.50
2022-12-20T17:41:27.464Z,0.30
2022-12-20T17:43:55.422Z,0.30
2022-12-20T17:46:25.149Z,0.30
2022-12-20T17:51:27.997Z,0.10
2022-12-20T17:53:56.328Z,0.10
2022-12-20T17:56:25.954Z,0.10
2022-12-20T17:58:55.077Z,0.10
2022-12-20T18:01:25.953Z,0.50
2022-12-20T18:04:04.719Z,0.50
2022-12-20T18:06:25.658Z,0.50
2022-12-20T18:11:25.858Z,0.40
2022-12-20T18:16:27.255Z,0.40
2022-12-20T18:18:54.831Z,0.40
2022-12-20T18:21:25.555Z,0.60
2022-12-20T18:23:54.623Z,0.60
2022-12-20T18:31:27.805Z,0.30
2022-12-20T18:33:58.150Z,0.30
2022-12-20T18:38:56.873Z,0.30
2022-12-20T18:41:27.156Z,0.30
2022-12-20T18:43:58.591Z,0.30
2022-12-20T18:46:24.630Z,0.30
2022-12-20T18:48:55.996Z,0.30
2022-12-20T18:53:56.285Z,0.40
2022-12-20T19:01:27.702Z,0.20
2022-12-20T19:03:55.156Z,0.20
2022-12-20T19:06:24.513Z,0.20
2022-12-20T19:08:54.686Z,0.20
2022-12-20T19:18:55.316Z,0.10
2022-12-20T19:21:26.795Z,0.10
2022-12-20T19:23:57.471Z,0.10
2022-12-20T19:26:26.381Z,0.10
2022-12-20T19:28:56.188Z,0.10
2022-12-20T19:31:26.510Z,0.60
2022-12-20T19:36:26.036Z,0.60
2022-12-20T19:38:57.037Z,0.60
2022-12-20T19:41:26.824Z,0.70
2022-12-20T19:43:55.562Z,0.70
2022-12-20T19:46:29.245Z,0.70
2022-12-20T19:48:54.823Z,0.70
2022-12-20T19:51:26.443Z,0.20
2022-12-20T19:53:55.784Z,0.20
2022-12-20T19:56:25.908Z,0.20
2022-12-20T19:58:55.449Z,0.20
2022-12-20T20:01:26.229Z,0.60
2022-12-20T20:03:56.487Z,0.60
2022-12-20T20:06:24.813Z,0.60
2022-12-20T20:08:56.529Z,0.60
2022-12-20T20:11:24.826Z,0.10
2022-12-20T20:13:54.374Z,0.10
2022-12-20T20:16:24.926Z,0.10
2022-12-20T20:18:54.461Z,0.10
2022-12-20T20:21:24.515Z,0.10
2022-12-20T20:23:54.867Z,0.10
2022-12-20T20:26:26.349Z,0.10
2022-12-20T20:28:54.677Z,0.10
2022-12-20T20:31:24.558Z,0.00
2022-12-20T20:33:56.846Z,0.00
2022-12-20T20:36:24.433Z,0.00
2022-12-20T20:38:54.869Z,0.00
2022-12-20T20:41:24.846Z,0.50
2022-12-20T20:43:54.572Z,0.50
2022-12-20T20:46:24.930Z,0.50
2022-12-20T20:48:54.344Z,0.50
2022-12-20T20:51:24.372Z,0.30
2022-12-20T20:53:54.331Z,0.30
2022-12-20T20:56:24.320Z,0.30
2022-12-20T20:58:57.759Z,0.30
2022-12-20T21:01:25.335Z,0.40
2022-12-20T21:03:55.659Z,0.40
2022-12-20T21:08:54.377Z,0.40
2022-12-20T21:11:25.011Z,0.10
2022-12-20T21:13:54.767Z,0.10
2022-12-20T21:18:56.579Z,0.10
2022-12-20T21:21:25.729Z,0.20
2022-12-20T21:23:55.486Z,0.20
2022-12-20T21:26:24.564Z,0.20
2022-12-20T21:28:56.830Z,0.20
2022-12-20T21:31:24.457Z,0.10
2022-12-20T21:33:54.650Z,0.10
2022-12-20T21:36:24.590Z,0.10
2022-12-20T21:38:56.120Z,0.10
2022-12-20T21:41:26.449Z,0.20
2022-12-20T21:43:55.879Z,0.20
2022-12-20T21:46:26.038Z,0.20
2022-12-20T21:48:55.036Z,0.20
2022-12-20T21:51:25.915Z,0.10
2022-12-20T21:53:56.626Z,0.10
2022-12-20T21:56:26.432Z,0.10
2022-12-20T22:03:58.723Z,0.70
2022-12-20T22:08:56.805Z,0.70
2022-12-20T22:11:24.545Z,0.10
2022-12-20T22:13:55.153Z,0.10
2022-12-20T22:16:28.258Z,0.10
2022-12-20T22:18:55.911Z,0.10
2022-12-20T22:21:26.611Z,0.20
2022-12-20T22:23:55.538Z,0.20
2022-12-20T22:26:26.196Z,0.20
2022-12-20T22:28:58.066Z,0.20
2022-12-20T22:31:25.195Z,0.20
2022-12-20T22:33:56.072Z,0.20
2022-12-20T22:36:27.676Z,0.20
2022-12-20T22:38:55.622Z,0.20
2022-12-20T22:41:26.817Z,0.30
2022-12-20T22:43:54.937Z,0.30
2022-12-20T22:46:28.249Z,0.30
2022-12-20T22:48:54.667Z,0.30
2022-12-20T22:51:26.278Z,0.10
2022-12-20T22:53:56.175Z,0.10
2022-12-20T22:58:55.280Z,0.10
2022-12-20T23:01:25.005Z,0.40
2022-12-20T23:06:24.442Z,0.40
2022-12-20T23:11:36.038Z,0.20
2022-12-20T23:14:04.187Z,0.20
2022-12-20T23:16:25.019Z,0.20
2022-12-20T23:18:54.928Z,0.20
2022-12-20T23:21:36.189Z,0.30
2022-12-20T23:23:56.223Z,0.30
2022-12-20T23:26:25.587Z,0.30
2022-12-20T23:28:54.461Z,0.30
2022-12-20T23:31:25.908Z,0.50
2022-12-20T23:33:54.333Z,0.50
2022-12-20T23:36:24.822Z,0.50
2022-12-20T23:38:55.844Z,0.50
2022-12-20T23:41:24.353Z,0.10
2022-12-20T23:43:54.798Z,0.10
2022-12-20T23:46:25.297Z,0.10
2022-12-20T23:48:54.325Z,0.10
2022-12-20T23:51:24.389Z,0.20
2022-12-20T23:53:54.530Z,0.20
2022-12-20T23:56:24.535Z,0.20
2022-12-20T23:58:54.839Z,0.20
